Lomond, Canada
Current Conditions -  °F | °C
As of 12:50 PM on Friday 19 Dec 2014 (Local Time) from CYDF Reporting Station
Light Snow Light Snow  
Wind Chill: 28°   Ceiling: 900
Heat Index: 34°   Visibility: 2mi
Dew Point: 32°   Wind: 7mph
Humidity: 93%   Direction: 10°N
Pressure: 29.36"   Gusts: NA
Location:  49.45°N, 57.93°W
Report Text: CYDF 191550Z 01006KT 340V040 2SM -SN SCT005 BKN009 OVC020 01/00 A2936 RMK SC4SC3SC1 SLP943
Loading
Personal Weather Stations






























Interactive Weather Map New forecast layout! Learn more

10-Day Weather Forecast

Advertisements
Track Severe Weather on mobile